Time,TemperatureF,DewpointF,PressureIn,WindDirection,WindDirectionDegrees,WindSpeedMPH,WindSpeedGustMPH,Humidity,HourlyPrecipIn,Conditions,Clouds,dailyrainin,SoftwareType,DateUTC
2013-08-23 00:00:00,70.9,69.4,29.83,West,260,0.0,0.0,95,0.00,,,0.65,Wunderground v.1.13,2013-08-23 04:00:00,
2013-08-23 00:05:00,70.8,69.3,29.83,West,260,0.0,0.0,95,0.00,,,0.00,Wunderground v.1.13,2013-08-23 04:05:00,
2013-08-23 00:10:00,70.8,69.3,29.83,West,260,0.0,0.0,95,0.00,,,0.00,Wunderground v.1.13,2013-08-23 04:10:00,
2013-08-23 00:15:00,70.6,69.1,29.83,West,260,0.0,0.0,95,0.00,,,0.00,Wunderground v.1.13,2013-08-23 04:15:00,
2013-08-23 00:20:00,70.6,69.1,29.83,West,260,0.0,0.0,95,0.00,,,0.00,Wunderground v.1.13,2013-08-23 04:20:00,
2013-08-23 00:25:00,70.6,69.1,29.83,West,260,0.0,0.0,95,0.00,,,0.00,Wunderground v.1.13,2013-08-23 04:25:00,
2013-08-23 00:30:00,70.8,69.3,29.83,West,260,0.0,0.0,95,0.00,,,0.00,Wunderground v.1.13,2013-08-23 04:30:00,
2013-08-23 00:35:00,70.6,69.1,29.83,West,260,0.0,0.0,95,0.00,,,0.00,Wunderground v.1.13,2013-08-23 04:35:00,
2013-08-23 00:40:00,70.6,69.1,29.83,West,260,0.0,0.0,95,0.00,,,0.00,Wunderground v.1.13,2013-08-23 04:40:00,
2013-08-23 00:45:00,70.4,68.9,29.83,West,260,0.0,0.0,95,0.00,,,0.00,Wunderground v.1.13,2013-08-23 04:45:00,
2013-08-23 00:55:00,70.3,68.8,29.83,West,260,0.0,0.0,95,0.00,,,0.00,Wunderground v.1.13,2013-08-23 04:55:00,
2013-08-23 01:00:00,70.3,68.8,29.83,West,260,0.0,0.0,95,0.00,,,0.00,Wunderground v.1.13,2013-08-23 05:00:00,
2013-08-23 01:05:00,70.3,68.8,29.83,West,260,0.0,0.0,95,0.00,,,0.00,Wunderground v.1.13,2013-08-23 05:05:00,
2013-08-23 01:10:00,70.1,68.6,29.83,West,260,0.0,0.0,95,0.00,,,0.00,Wunderground v.1.13,2013-08-23 05:10:00,
2013-08-23 01:15:00,70.1,68.6,29.83,West,260,0.0,0.0,95,0.00,,,0.00,Wunderground v.1.13,2013-08-23 05:15:00,
2013-08-23 01:25:00,69.9,68.4,29.83,West,260,0.0,0.0,95,0.00,,,0.00,Wunderground v.1.13,2013-08-23 05:25:00,
2013-08-23 01:30:00,69.8,68.3,29.83,West,260,0.0,0.0,95,0.00,,,0.00,Wunderground v.1.13,2013-08-23 05:30:00,
2013-08-23 01:35:00,69.6,68.1,29.83,West,260,0.0,0.0,95,0.00,,,0.00,Wunderground v.1.13,2013-08-23 05:35:00,
2013-08-23 01:40:00,69.6,68.1,29.83,West,260,0.0,0.0,95,0.00,,,0.00,Wunderground v.1.13,2013-08-23 05:40:00,
2013-08-23 01:50:00,69.3,67.8,29.83,West,260,0.0,0.0,95,0.00,,,0.00,Wunderground v.1.13,2013-08-23 05:50:00,
2013-08-23 01:55:00,69.1,67.6,29.83,West,260,0.0,0.0,95,0.00,,,0.00,Wunderground v.1.13,2013-08-23 05:55:00,
2013-08-23 02:00:00,69.1,67.6,29.83,West,260,0.0,0.0,95,0.00,,,0.00,Wunderground v.1.13,2013-08-23 06:00:00,
2013-08-23 02:10:00,68.9,67.4,29.83,West,260,0.0,0.0,95,0.00,,,0.00,Wunderground v.1.13,2013-08-23 06:10:00,
2013-08-23 02:15:00,68.9,67.4,29.83,West,260,0.0,0.0,95,0.00,,,0.00,Wunderground v.1.13,2013-08-23 06:15:00,
2013-08-23 02:20:00,68.9,67.4,29.83,West,260,0.0,0.0,95,0.00,,,0.00,Wunderground v.1.13,2013-08-23 06:20:00,
2013-08-23 02:25:00,68.9,67.4,29.83,West,260,0.0,0.0,95,0.00,,,0.00,Wunderground v.1.13,2013-08-23 06:25:00,
2013-08-23 02:30:00,68.9,67.4,29.83,West,260,0.0,0.0,95,0.00,,,0.00,Wunderground v.1.13,2013-08-23 06:30:00,
2013-08-23 02:40:00,68.8,67.3,29.83,West,260,0.0,0.0,95,0.00,,,0.00,Wunderground v.1.13,2013-08-23 06:40:00,
2013-08-23 02:45:00,68.8,67.3,29.83,West,260,0.0,0.0,95,0.00,,,0.00,Wunderground v.1.13,2013-08-23 06:45:00,
2013-08-23 02:50:00,68.8,67.3,29.83,West,260,0.0,0.0,95,0.00,,,0.00,Wunderground v.1.13,2013-08-23 06:50:00,
2013-08-23 02:55:00,68.8,67.3,29.83,West,260,0.0,0.0,95,0.00,,,0.00,Wunderground v.1.13,2013-08-23 06:55:00,
2013-08-23 03:00:00,68.8,67.3,29.83,West,260,0.0,0.0,95,0.00,,,0.00,Wunderground v.1.13,2013-08-23 07:00:00,
2013-08-23 03:10:00,68.8,67.3,29.83,West,260,0.0,0.0,95,0.00,,,0.00,Wunderground v.1.13,2013-08-23 07:10:00,
2013-08-23 03:15:00,68.8,67.3,29.84,West,260,0.0,0.0,95,0.00,,,0.00,Wunderground v.1.13,2013-08-23 07:15:00,
2013-08-23 03:20:00,68.8,67.3,29.84,West,260,0.0,0.0,95,0.00,,,0.00,Wunderground v.1.13,2013-08-23 07:20:00,
2013-08-23 03:30:00,68.6,66.8,29.84,West,260,0.0,0.0,94,0.00,,,0.00,Wunderground v.1.13,2013-08-23 07:30:00,
2013-08-23 03:35:00,68.6,66.8,29.84,West,260,0.0,0.0,94,0.00,,,0.00,Wunderground v.1.13,2013-08-23 07:35:00,
2013-08-23 03:40:00,68.6,66.8,29.84,West,260,0.0,0.0,94,0.00,,,0.00,Wunderground v.1.13,2013-08-23 07:40:00,
2013-08-23 03:45:00,68.6,66.8,29.84,West,260,0.0,0.0,94,0.00,,,0.00,Wunderground v.1.13,2013-08-23 07:45:00,
2013-08-23 03:55:00,68.6,66.8,29.84,West,260,0.0,0.0,94,0.00,,,0.00,Wunderground v.1.13,2013-08-23 07:55:00,
2013-08-23 04:00:00,68.6,66.8,29.83,West,260,0.0,0.0,94,0.00,,,0.00,Wunderground v.1.13,2013-08-23 08:00:00,
2013-08-23 04:05:00,68.6,66.8,29.83,NE,37,0.0,1.0,94,0.00,,,0.00,Wunderground v.1.13,2013-08-23 08:05:00,
2013-08-23 04:10:00,68.6,66.5,29.83,NE,37,0.0,0.0,93,0.00,,,0.00,Wunderground v.1.13,2013-08-23 08:10:00,
2013-08-23 04:15:00,68.8,66.4,29.84,NE,40,0.0,0.0,92,0.00,,,0.00,Wunderground v.1.13,2013-08-23 08:15:00,
2013-08-23 04:25:00,68.8,66.4,29.84,NE,40,0.0,0.0,92,0.00,,,0.00,Wunderground v.1.13,2013-08-23 08:25:00,
2013-08-23 04:30:00,68.6,66.2,29.85,NE,40,0.0,0.0,92,0.00,,,0.00,Wunderground v.1.13,2013-08-23 08:30:00,
2013-08-23 04:40:00,68.4,66.0,29.85,NE,40,0.0,0.0,92,0.00,,,0.00,Wunderground v.1.13,2013-08-23 08:40:00,
2013-08-23 04:45:00,68.3,65.9,29.85,NE,40,0.0,0.0,92,0.00,,,0.00,Wunderground v.1.13,2013-08-23 08:45:00,
2013-08-23 04:50:00,68.1,65.7,29.85,NE,40,0.0,0.0,92,0.00,,,0.00,Wunderground v.1.13,2013-08-23 08:50:00,
2013-08-23 04:55:00,68.1,65.7,29.85,NE,40,0.0,0.0,92,0.00,,,0.00,Wunderground v.1.13,2013-08-23 08:55:00,
2013-08-23 05:00:00,67.9,65.5,29.85,NE,40,0.0,0.0,92,0.00,,,0.00,Wunderground v.1.13,2013-08-23 09:00:00,
2013-08-23 05:05:00,67.9,65.5,29.85,NE,40,0.0,0.0,92,0.00,,,0.00,Wunderground v.1.13,2013-08-23 09:05:00,
2013-08-23 05:10:00,67.8,65.4,29.85,NE,40,0.0,0.0,92,0.00,,,0.00,Wunderground v.1.13,2013-08-23 09:10:00,
2013-08-23 05:15:00,67.6,65.2,29.86,NE,40,0.0,0.0,92,0.00,,,0.00,Wunderground v.1.13,2013-08-23 09:15:00,
2013-08-23 05:25:00,67.3,64.9,29.86,NE,40,0.0,0.0,92,0.00,,,0.00,Wunderground v.1.13,2013-08-23 09:25:00,
2013-08-23 05:30:00,67.3,64.9,29.86,NE,40,0.0,0.0,92,0.00,,,0.00,Wunderground v.1.13,2013-08-23 09:30:00,
2013-08-23 05:35:00,67.1,64.7,29.86,NE,40,0.0,0.0,92,0.00,,,0.00,Wunderground v.1.13,2013-08-23 09:35:00,
2013-08-23 05:40:00,67.1,64.4,29.86,NE,40,0.0,0.0,91,0.00,,,0.00,Wunderground v.1.13,2013-08-23 09:40:00,
2013-08-23 05:45:00,66.9,64.2,29.87,NE,40,0.0,0.0,91,0.00,,,0.00,Wunderground v.1.13,2013-08-23 09:45:00,
2013-08-23 05:55:00,67.1,62.4,29.87,NNE,32,1.0,2.0,85,0.00,,,0.00,Wunderground v.1.13,2013-08-23 09:55:00,
2013-08-23 06:00:00,67.4,61.7,29.87,NNE,25,1.0,1.0,82,0.00,,,0.00,Wunderground v.1.13,2013-08-23 10:00:00,
2013-08-23 06:05:00,67.6,61.2,29.87,NE,44,1.0,2.0,80,0.00,,,0.00,Wunderground v.1.13,2013-08-23 10:05:00,
2013-08-23 06:10:00,67.9,60.8,29.87,NNE,24,1.0,4.0,78,0.00,,,0.00,Wunderground v.1.13,2013-08-23 10:10:00,
2013-08-23 06:15:00,68.3,60.4,29.88,NE,49,1.0,1.0,76,0.00,,,0.00,Wunderground v.1.13,2013-08-23 10:15:00,
2013-08-23 06:25:00,68.8,60.9,29.88,NE,45,1.0,1.0,76,0.00,,,0.00,Wunderground v.1.13,2013-08-23 10:25:00,
2013-08-23 06:30:00,68.8,60.9,29.89,NE,38,1.0,1.0,76,0.00,,,0.00,Wunderground v.1.13,2013-08-23 10:30:00,
2013-08-23 06:35:00,68.8,61.3,29.89,NE,37,0.0,0.0,77,0.00,,,0.00,Wunderground v.1.13,2013-08-23 10:35:00,
2013-08-23 06:40:00,68.8,61.3,29.89,NNE,25,0.0,0.0,77,0.00,,,0.00,Wunderground v.1.13,2013-08-23 10:40:00,
2013-08-23 06:45:00,68.6,61.5,29.89,NE,38,0.0,0.0,78,0.00,,,0.00,Wunderground v.1.13,2013-08-23 10:45:00,
2013-08-23 06:55:00,68.4,61.6,29.89,NE,38,0.0,0.0,79,0.00,,,0.00,Wunderground v.1.13,2013-08-23 10:55:00,
2013-08-23 07:00:00,68.4,61.6,29.90,NE,35,0.0,0.0,79,0.00,,,0.00,Wunderground v.1.13,2013-08-23 11:00:00,
2013-08-23 07:05:00,68.3,61.9,29.90,NE,35,0.0,0.0,80,0.00,,,0.00,Wunderground v.1.13,2013-08-23 11:05:00,
2013-08-23 07:10:00,68.1,61.7,29.90,NE,35,0.0,0.0,80,0.00,,,0.00,Wunderground v.1.13,2013-08-23 11:10:00,
2013-08-23 07:15:00,68.1,62.0,29.91,NE,35,0.0,0.0,81,0.00,,,0.00,Wunderground v.1.13,2013-08-23 11:15:00,
2013-08-23 07:25:00,68.1,61.7,29.91,NE,44,0.0,0.0,80,0.00,,,0.00,Wunderground v.1.13,2013-08-23 11:25:00,
2013-08-23 07:30:00,68.3,61.9,29.91,NE,44,0.0,0.0,80,0.00,,,0.00,Wunderground v.1.13,2013-08-23 11:30:00,
2013-08-23 07:35:00,68.3,61.2,29.91,NE,44,0.0,0.0,78,0.00,,,0.00,Wunderground v.1.13,2013-08-23 11:35:00,
2013-08-23 07:40:00,68.6,61.5,29.91,NE,44,0.0,0.0,78,0.00,,,0.00,Wunderground v.1.13,2013-08-23 11:40:00,
2013-08-23 07:45:00,68.8,60.9,29.91,NE,44,0.0,0.0,76,0.00,,,0.00,Wunderground v.1.13,2013-08-23 11:45:00,
2013-08-23 07:55:00,69.4,61.1,29.91,ENE,71,0.0,0.0,75,0.00,,,0.00,Wunderground v.1.13,2013-08-23 11:55:00,
2013-08-23 08:00:00,69.6,60.9,29.92,ENE,72,0.0,0.0,74,0.00,,,0.00,Wunderground v.1.13,2013-08-23 12:00:00,
2013-08-23 08:05:00,69.8,60.8,29.92,NE,37,0.0,2.0,73,0.00,,,0.00,Wunderground v.1.13,2013-08-23 12:05:00,
2013-08-23 08:10:00,69.9,60.5,29.92,NE,35,1.0,1.0,72,0.00,,,0.00,Wunderground v.1.13,2013-08-23 12:10:00,
2013-08-23 08:15:00,69.9,60.5,29.93,NE,37,1.0,1.0,72,0.00,,,0.00,Wunderground v.1.13,2013-08-23 12:15:00,
2013-08-23 08:20:00,69.9,60.5,29.93,NE,56,1.0,2.0,72,0.00,,,0.00,Wunderground v.1.13,2013-08-23 12:20:00,
2013-08-23 08:25:00,70.1,60.7,29.93,SSE,154,1.0,1.0,72,0.00,,,0.00,Wunderground v.1.13,2013-08-23 12:25:00,
2013-08-23 08:35:00,70.3,60.4,29.93,NE,35,0.0,0.0,71,0.00,,,0.00,Wunderground v.1.13,2013-08-23 12:35:00,
2013-08-23 08:40:00,70.4,60.5,29.93,NE,56,0.0,1.0,71,0.00,,,0.00,Wunderground v.1.13,2013-08-23 12:40:00,
2013-08-23 08:45:00,70.6,60.3,29.93,ENE,65,1.0,5.0,70,0.00,,,0.00,Wunderground v.1.13,2013-08-23 12:45:00,
2013-08-23 08:50:00,70.9,60.6,29.93,ENE,62,1.0,1.0,70,0.00,,,0.00,Wunderground v.1.13,2013-08-23 12:50:00,
2013-08-23 08:55:00,71.1,60.0,29.93,North,8,1.0,5.0,68,0.00,,,0.00,Wunderground v.1.13,2013-08-23 12:55:00,
2013-08-23 09:05:00,71.5,60.8,29.93,North,4,2.0,2.0,69,0.00,,,0.00,Wunderground v.1.13,2013-08-23 13:05:00,
2013-08-23 09:10:00,71.5,60.4,29.93,ENE,64,1.0,3.0,68,0.00,,,0.00,Wunderground v.1.13,2013-08-23 13:10:00,
2013-08-23 09:15:00,71.6,59.6,29.93,NE,51,2.0,6.0,66,0.00,,,0.00,Wunderground v.1.13,2013-08-23 13:15:00,
2013-08-23 09:25:00,71.8,60.2,29.93,NNE,28,1.0,1.0,67,0.00,,,0.00,Wunderground v.1.13,2013-08-23 13:25:00,
2013-08-23 09:30:00,71.8,59.8,29.93,East,86,1.0,1.0,66,0.00,,,0.00,Wunderground v.1.13,2013-08-23 13:30:00,
2013-08-23 09:35:00,72.0,60.4,29.93,NE,45,1.0,3.0,67,0.00,,,0.00,Wunderground v.1.13,2013-08-23 13:35:00,
2013-08-23 09:40:00,72.1,60.5,29.93,North,11,0.0,0.0,67,0.00,,,0.00,Wunderground v.1.13,2013-08-23 13:40:00,
2013-08-23 09:45:00,72.3,60.3,29.94,ENE,58,0.0,0.0,66,0.00,,,0.00,Wunderground v.1.13,2013-08-23 13:45:00,
2013-08-23 09:55:00,73.0,59.7,29.94,West,263,0.0,0.0,63,0.00,,,0.00,Wunderground v.1.13,2013-08-23 13:55:00,
2013-08-23 10:00:00,73.3,59.5,29.94,NE,49,1.0,1.0,62,0.00,,,0.00,Wunderground v.1.13,2013-08-23 14:00:00,
2013-08-23 10:05:00,73.7,59.4,29.94,SW,217,1.0,1.0,61,0.00,,,0.00,Wunderground v.1.13,2013-08-23 14:05:00,
2013-08-23 10:10:00,73.5,59.2,29.94,NE,40,1.0,1.0,61,0.00,,,0.00,Wunderground v.1.13,2013-08-23 14:10:00,
2013-08-23 10:15:00,73.5,59.2,29.94,NE,40,1.0,1.0,61,0.00,,,0.00,Wunderground v.1.13,2013-08-23 14:15:00,
2013-08-23 10:20:00,73.5,58.8,29.94,NE,49,1.0,1.0,60,0.00,,,0.00,Wunderground v.1.13,2013-08-23 14:20:00,
2013-08-23 10:30:00,73.9,59.1,29.94,NNE,18,1.0,1.0,60,0.00,,,0.00,Wunderground v.1.13,2013-08-23 14:30:00,
2013-08-23 10:35:00,74.0,58.8,29.94,NE,54,0.0,1.0,59,0.00,,,0.00,Wunderground v.1.13,2013-08-23 14:35:00,
2013-08-23 10:40:00,74.6,57.9,29.94,West,261,1.0,1.0,56,0.00,,,0.00,Wunderground v.1.13,2013-08-23 14:40:00,
2013-08-23 10:45:00,75.1,57.3,29.94,West,261,1.0,1.0,54,0.00,,,0.00,Wunderground v.1.13,2013-08-23 14:45:00,
2013-08-23 10:50:00,75.6,56.2,29.94,West,271,1.0,1.0,51,0.00,,,0.00,Wunderground v.1.13,2013-08-23 14:50:00,
2013-08-23 10:55:00,75.8,55.8,29.94,WSW,250,1.0,2.0,50,0.00,,,0.00,Wunderground v.1.13,2013-08-23 14:55:00,
2013-08-23 11:00:00,76.0,56.6,29.94,WSW,246,0.0,0.0,51,0.00,,,0.00,Wunderground v.1.13,2013-08-23 15:00:00,
2013-08-23 11:10:00,76.7,56.7,29.94,NW,315,1.0,1.0,50,0.00,,,0.00,Wunderground v.1.13,2013-08-23 15:10:00,
2013-08-23 11:15:00,76.8,55.6,29.94,NE,40,1.0,1.0,48,0.00,,,0.00,Wunderground v.1.13,2013-08-23 15:15:00,
2013-08-23 11:20:00,77.0,56.4,29.94,NE,41,0.0,0.0,49,0.00,,,0.00,Wunderground v.1.13,2013-08-23 15:20:00,
2013-08-23 11:25:00,77.0,54.6,29.94,NNE,24,1.0,3.0,46,0.00,,,0.00,Wunderground v.1.13,2013-08-23 15:25:00,
2013-08-23 11:30:00,77.0,56.4,29.94,NE,52,2.0,3.0,49,0.00,,,0.00,Wunderground v.1.13,2013-08-23 15:30:00,
2013-08-23 11:40:00,77.0,55.8,29.94,NW,320,1.0,1.0,48,0.00,,,0.00,Wunderground v.1.13,2013-08-23 15:40:00,
2013-08-23 11:45:00,76.8,56.2,29.94,West,261,1.0,2.0,49,0.00,,,0.00,Wunderground v.1.13,2013-08-23 15:45:00,
2013-08-23 11:50:00,76.5,56.5,29.94,NW,320,1.0,1.0,50,0.00,,,0.00,Wunderground v.1.13,2013-08-23 15:50:00,
2013-08-23 12:00:00,76.8,56.2,29.94,NE,48,1.0,1.0,49,0.00,,,0.00,Wunderground v.1.13,2013-08-23 16:00:00,
2013-08-23 12:05:00,76.8,54.5,29.94,NNE,30,2.0,2.0,46,0.00,,,0.00,Wunderground v.1.13,2013-08-23 16:05:00,
2013-08-23 12:10:00,76.8,54.5,29.94,NNE,30,3.0,4.0,46,0.00,,,0.00,Wunderground v.1.13,2013-08-23 16:10:00,
2013-08-23 12:15:00,77.0,54.6,29.94,WSW,240,2.0,2.0,46,0.00,,,0.00,Wunderground v.1.13,2013-08-23 16:15:00,
2013-08-23 12:20:00,77.6,54.6,29.94,NNE,24,1.0,1.0,45,0.00,,,0.00,Wunderground v.1.13,2013-08-23 16:20:00,
2013-08-23 12:30:00,77.6,53.3,29.93,North,356,3.0,4.0,43,0.00,,,0.00,Wunderground v.1.13,2013-08-23 16:30:00,
2013-08-23 12:35:00,77.2,53.6,29.93,NE,47,3.0,4.0,44,0.00,,,0.00,Wunderground v.1.13,2013-08-23 16:35:00,
2013-08-23 12:40:00,77.2,53.6,29.93,East,90,1.0,1.0,44,0.00,,,0.00,Wunderground v.1.13,2013-08-23 16:40:00,
2013-08-23 12:45:00,77.0,53.4,29.94,WSW,256,1.0,1.0,44,0.00,,,0.00,Wunderground v.1.13,2013-08-23 16:45:00,
2013-08-23 12:55:00,76.8,53.8,29.94,WSW,250,0.0,0.0,45,0.00,,,0.00,Wunderground v.1.13,2013-08-23 16:55:00,
2013-08-23 13:00:00,77.0,54.0,29.94,NNE,31,0.0,0.0,45,0.00,,,0.00,Wunderground v.1.13,2013-08-23 17:00:00,
2013-08-23 13:05:00,77.6,53.3,29.94,WSW,244,0.0,2.0,43,0.00,,,0.00,Wunderground v.1.13,2013-08-23 17:05:00,
2013-08-23 13:10:00,77.4,53.8,29.94,SW,226,0.0,1.0,44,0.00,,,0.00,Wunderground v.1.13,2013-08-23 17:10:00,
2013-08-23 13:20:00,77.6,50.7,29.94,West,271,1.0,1.0,39,0.00,,,0.00,Wunderground v.1.13,2013-08-23 17:20:00,
2013-08-23 13:25:00,77.7,51.5,29.94,NE,42,1.0,5.0,40,0.00,,,0.00,Wunderground v.1.13,2013-08-23 17:25:00,
2013-08-23 13:30:00,77.6,51.4,29.94,NNE,13,2.0,2.0,40,0.00,,,0.00,Wunderground v.1.13,2013-08-23 17:30:00,
2013-08-23 13:35:00,77.6,52.7,29.94,NE,37,2.0,2.0,42,0.00,,,0.00,Wunderground v.1.13,2013-08-23 17:35:00,
2013-08-23 13:40:00,77.7,52.8,29.94,WSW,254,1.0,1.0,42,0.00,,,0.00,Wunderground v.1.13,2013-08-23 17:40:00,
2013-08-23 13:50:00,77.9,53.0,29.95,ENE,59,0.0,0.0,42,0.00,,,0.00,Wunderground v.1.13,2013-08-23 17:50:00,
2013-08-23 13:55:00,77.7,53.4,29.95,ENE,68,1.0,1.0,43,0.00,,,0.00,Wunderground v.1.13,2013-08-23 17:55:00,
2013-08-23 14:00:00,78.1,55.0,29.95,NNE,30,1.0,1.0,45,0.00,,,0.00,Wunderground v.1.13,2013-08-23 18:00:00,
2013-08-23 14:05:00,78.1,54.4,29.95,West,274,0.0,1.0,44,0.00,,,0.00,Wunderground v.1.13,2013-08-23 18:05:00,
2013-08-23 14:15:00,79.2,55.4,29.95,WSW,250,0.0,0.0,44,0.00,,,0.00,Wunderground v.1.13,2013-08-23 18:15:00,
2013-08-23 14:20:00,79.2,54.1,29.95,NW,323,0.0,0.0,42,0.00,,,0.00,Wunderground v.1.13,2013-08-23 18:20:00,
2013-08-23 14:25:00,79.4,55.0,29.95,ENE,71,1.0,1.0,43,0.00,,,0.00,Wunderground v.1.13,2013-08-23 18:25:00,
2013-08-23 14:30:00,79.6,55.1,29.95,North,0,1.0,2.0,43,0.00,,,0.00,Wunderground v.1.13,2013-08-23 18:30:00,
2013-08-23 14:40:00,79.0,54.6,29.95,ENE,71,3.0,3.0,43,0.00,,,0.00,Wunderground v.1.13,2013-08-23 18:40:00,
2013-08-23 14:45:00,78.6,54.2,29.95,ENE,73,4.0,4.0,43,0.00,,,0.00,Wunderground v.1.13,2013-08-23 18:45:00,
2013-08-23 14:50:00,78.3,55.2,29.95,North,7,2.0,7.0,45,0.00,,,0.00,Wunderground v.1.13,2013-08-23 18:50:00,
2013-08-23 14:55:00,78.3,55.2,29.95,NNE,21,2.0,2.0,45,0.00,,,0.00,Wunderground v.1.13,2013-08-23 18:55:00,
2013-08-23 15:00:00,78.3,55.2,29.95,ENE,75,1.0,4.0,45,0.00,,,0.00,Wunderground v.1.13,2013-08-23 19:00:00,
2013-08-23 15:10:00,78.3,55.2,29.95,NE,45,1.0,2.0,45,0.00,,,0.00,Wunderground v.1.13,2013-08-23 19:10:00,
2013-08-23 15:15:00,78.3,55.2,29.95,NE,44,2.0,2.0,45,0.00,,,0.00,Wunderground v.1.13,2013-08-23 19:15:00,
2013-08-23 15:20:00,78.1,54.4,29.95,North,1,3.0,13.0,44,0.00,,,0.00,Wunderground v.1.13,2013-08-23 19:20:00,
2013-08-23 15:25:00,77.7,53.4,29.95,NNE,30,4.0,7.0,43,0.00,,,0.00,Wunderground v.1.13,2013-08-23 19:25:00,
2013-08-23 15:30:00,77.7,54.0,29.95,NE,38,4.0,4.0,44,0.00,,,0.00,Wunderground v.1.13,2013-08-23 19:30:00,
2013-08-23 15:40:00,77.9,55.5,29.95,WSW,257,0.0,1.0,46,0.00,,,0.00,Wunderground v.1.13,2013-08-23 19:40:00,
2013-08-23 15:45:00,77.9,55.5,29.94,West,263,0.0,0.0,46,0.00,,,0.00,Wunderground v.1.13,2013-08-23 19:45:00,
2013-08-23 15:50:00,78.5,56.6,29.94,ENE,69,0.0,0.0,47,0.00,,,0.00,Wunderground v.1.13,2013-08-23 19:50:00,
2013-08-23 15:55:00,78.6,56.1,29.94,ENE,66,0.0,0.0,46,0.00,,,0.00,Wunderground v.1.13,2013-08-23 19:55:00,
2013-08-23 16:00:00,78.8,55.0,29.94,NE,34,1.0,1.0,44,0.00,,,0.00,Wunderground v.1.13,2013-08-23 20:00:00,
2013-08-23 16:10:00,78.8,54.4,29.94,East,90,1.0,1.0,43,0.00,,,0.00,Wunderground v.1.13,2013-08-23 20:10:00,
2013-08-23 16:15:00,78.8,55.0,29.95,ENE,64,1.0,1.0,44,0.00,,,0.00,Wunderground v.1.13,2013-08-23 20:15:00,
2013-08-23 16:20:00,79.0,55.2,29.95,NE,49,0.0,2.0,44,0.00,,,0.00,Wunderground v.1.13,2013-08-23 20:20:00,
2013-08-23 16:25:00,79.4,55.0,29.95,NE,38,0.0,2.0,43,0.00,,,0.00,Wunderground v.1.13,2013-08-23 20:25:00,
2013-08-23 16:30:00,79.2,54.8,29.94,NE,41,1.0,1.0,43,0.00,,,0.00,Wunderground v.1.13,2013-08-23 20:30:00,
2013-08-23 16:35:00,79.0,55.2,29.94,NE,44,1.0,3.0,44,0.00,,,0.00,Wunderground v.1.13,2013-08-23 20:35:00,
2013-08-23 16:45:00,78.1,55.0,29.95,NE,48,2.0,2.0,45,0.00,,,0.00,Wunderground v.1.13,2013-08-23 20:45:00,
2013-08-23 16:50:00,77.7,54.0,29.95,NE,51,2.0,2.0,44,0.00,,,0.00,Wunderground v.1.13,2013-08-23 20:50:00,
2013-08-23 16:55:00,77.4,53.8,29.95,ENE,72,2.0,5.0,44,0.00,,,0.00,Wunderground v.1.13,2013-08-23 20:55:00,
2013-08-23 17:00:00,77.2,53.6,29.95,NE,48,2.0,2.0,44,0.00,,,0.00,Wunderground v.1.13,2013-08-23 21:00:00,
2013-08-23 17:05:00,77.0,54.0,29.95,ENE,61,2.0,2.0,45,0.00,,,0.00,Wunderground v.1.13,2013-08-23 21:05:00,
2013-08-23 17:10:00,77.0,54.0,29.95,NE,48,1.0,1.0,45,0.00,,,0.00,Wunderground v.1.13,2013-08-23 21:10:00,
2013-08-23 17:15:00,77.2,55.4,29.95,NE,48,0.0,0.0,47,0.00,,,0.00,Wunderground v.1.13,2013-08-23 21:15:00,
2013-08-23 17:25:00,77.2,55.4,29.95,NNE,32,1.0,1.0,47,0.00,,,0.00,Wunderground v.1.13,2013-08-23 21:25:00,
2013-08-23 17:30:00,77.0,55.8,29.95,NE,52,1.0,2.0,48,0.00,,,0.00,Wunderground v.1.13,2013-08-23 21:30:00,
2013-08-23 17:35:00,77.0,55.8,29.95,ENE,58,1.0,4.0,48,0.00,,,0.00,Wunderground v.1.13,2013-08-23 21:35:00,
2013-08-23 17:40:00,76.8,55.6,29.95,NE,45,1.0,1.0,48,0.00,,,0.00,Wunderground v.1.13,2013-08-23 21:40:00,
2013-08-23 17:50:00,76.5,55.3,29.96,NE,41,1.0,2.0,48,0.00,,,0.00,Wunderground v.1.13,2013-08-23 21:50:00,
2013-08-23 17:55:00,76.3,55.2,29.96,NE,51,1.0,1.0,48,0.00,,,0.00,Wunderground v.1.13,2013-08-23 21:55:00,
2013-08-23 18:00:00,76.0,54.9,29.95,NE,48,2.0,2.0,48,0.00,,,0.00,Wunderground v.1.13,2013-08-23 22:00:00,
2013-08-23 18:10:00,76.0,55.5,29.95,NE,42,1.0,1.0,49,0.00,,,0.00,Wunderground v.1.13,2013-08-23 22:10:00,
2013-08-23 18:15:00,76.1,55.0,29.95,ENE,73,1.0,1.0,48,0.00,,,0.00,Wunderground v.1.13,2013-08-23 22:15:00,
2013-08-23 18:20:00,76.1,55.0,29.95,ENE,73,0.0,0.0,48,0.00,,,0.00,Wunderground v.1.13,2013-08-23 22:20:00,
2013-08-23 18:25:00,76.3,56.3,29.95,ENE,59,0.0,1.0,50,0.00,,,0.00,Wunderground v.1.13,2013-08-23 22:25:00,
2013-08-23 18:30:00,76.3,56.3,29.96,NNE,25,0.0,3.0,50,0.00,,,0.00,Wunderground v.1.13,2013-08-23 22:30:00,
2013-08-23 18:40:00,76.1,56.7,29.96,NE,40,1.0,7.0,51,0.00,,,0.00,Wunderground v.1.13,2013-08-23 22:40:00,
2013-08-23 18:45:00,75.8,56.4,29.96,NE,47,1.0,3.0,51,0.00,,,0.00,Wunderground v.1.13,2013-08-23 22:45:00,
2013-08-23 18:50:00,75.6,56.7,29.96,NE,37,1.0,1.0,52,0.00,,,0.00,Wunderground v.1.13,2013-08-23 22:50:00,
2013-08-23 18:55:00,75.6,56.2,29.96,NE,37,0.0,0.0,51,0.00,,,0.00,Wunderground v.1.13,2013-08-23 22:55:00,
2013-08-23 19:05:00,75.1,55.2,29.97,NE,34,0.0,0.0,50,0.00,,,0.00,Wunderground v.1.13,2013-08-23 23:05:00,
2013-08-23 19:10:00,74.9,55.6,29.97,NNE,32,0.0,0.0,51,0.00,,,0.00,Wunderground v.1.13,2013-08-23 23:10:00,
2013-08-23 19:15:00,74.7,55.4,29.98,NE,51,0.0,0.0,51,0.00,,,0.00,Wunderground v.1.13,2013-08-23 23:15:00,
2013-08-23 19:25:00,74.2,56.5,29.98,NNE,21,1.0,1.0,54,0.00,,,0.00,Wunderground v.1.13,2013-08-23 23:25:00,
2013-08-23 19:30:00,74.0,56.8,29.98,NNE,21,0.0,0.0,55,0.00,,,0.00,Wunderground v.1.13,2013-08-23 23:30:00,
2013-08-23 19:35:00,73.9,57.7,29.98,NNE,21,0.0,0.0,57,0.00,,,0.00,Wunderground v.1.13,2013-08-23 23:35:00,
2013-08-23 19:40:00,73.3,57.1,29.98,NNE,21,0.0,0.0,57,0.00,,,0.00,Wunderground v.1.13,2013-08-23 23:40:00,
2013-08-23 19:45:00,72.7,57.5,29.99,NNE,21,0.0,0.0,59,0.00,,,0.00,Wunderground v.1.13,2013-08-23 23:45:00,
2013-08-23 19:55:00,71.5,57.8,29.99,NNE,21,0.0,0.0,62,0.00,,,0.00,Wunderground v.1.13,2013-08-23 23:55:00,
2013-08-23 20:00:00,70.9,57.7,30.00,NNE,21,0.0,0.0,63,0.00,,,0.00,Wunderground v.1.13,2013-08-24 00:00:00,
2013-08-23 20:05:00,70.6,57.8,30.00,NNE,21,0.0,0.0,64,0.00,,,0.00,Wunderground v.1.13,2013-08-24 00:05:00,
2013-08-23 20:10:00,70.3,57.5,30.00,NNE,21,0.0,0.0,64,0.00,,,0.00,Wunderground v.1.13,2013-08-24 00:10:00,
2013-08-23 20:15:00,69.9,57.6,30.00,NNE,21,0.0,0.0,65,0.00,,,0.00,Wunderground v.1.13,2013-08-24 00:15:00,
2013-08-23 20:25:00,69.1,58.1,30.00,NNE,21,0.0,0.0,68,0.00,,,0.00,Wunderground v.1.13,2013-08-24 00:25:00,
2013-08-23 20:30:00,68.4,58.2,30.01,NNE,21,0.0,0.0,70,0.00,,,0.00,Wunderground v.1.13,2013-08-24 00:30:00,
2013-08-23 20:35:00,67.9,58.1,30.01,NNE,21,0.0,0.0,71,0.00,,,0.00,Wunderground v.1.13,2013-08-24 00:35:00,
2013-08-23 20:45:00,67.1,58.2,30.02,NNE,21,0.0,0.0,73,0.00,,,0.00,Wunderground v.1.13,2013-08-24 00:45:00,
2013-08-23 20:50:00,66.8,58.2,30.02,NNE,21,0.0,0.0,74,0.00,,,0.00,Wunderground v.1.13,2013-08-24 00:50:00,
2013-08-23 20:55:00,66.4,58.2,30.02,NNE,21,0.0,0.0,75,0.00,,,0.00,Wunderground v.1.13,2013-08-24 00:55:00,
2013-08-23 21:00:00,66.3,58.1,30.02,NNE,21,0.0,0.0,75,0.00,,,0.00,Wunderground v.1.13,2013-08-24 01:00:00,
2013-08-23 21:10:00,66.0,57.8,30.02,NNE,21,0.0,0.0,75,0.00,,,0.00,Wunderground v.1.13,2013-08-24 01:10:00,
2013-08-23 21:15:00,65.8,57.3,30.03,NE,38,0.0,1.0,74,0.00,,,0.00,Wunderground v.1.13,2013-08-24 01:15:00,
2013-08-23 21:20:00,66.6,54.0,30.03,NE,38,0.0,0.0,64,0.00,,,0.00,Wunderground v.1.13,2013-08-24 01:20:00,
2013-08-23 21:25:00,66.9,55.2,30.03,NE,44,0.0,0.0,66,0.00,,,0.00,Wunderground v.1.13,2013-08-24 01:25:00,
2013-08-23 21:30:00,67.3,52.5,30.03,NE,48,1.0,1.0,59,0.00,,,0.00,Wunderground v.1.13,2013-08-24 01:30:00,
2013-08-23 21:40:00,67.9,52.6,30.03,ENE,66,0.0,0.0,58,0.00,,,0.00,Wunderground v.1.13,2013-08-24 01:40:00,
2013-08-23 21:45:00,68.1,51.8,30.03,ENE,58,0.0,0.0,56,0.00,,,0.00,Wunderground v.1.13,2013-08-24 01:45:00,
2013-08-23 21:50:00,68.1,51.8,30.03,NE,54,0.0,0.0,56,0.00,,,0.00,Wunderground v.1.13,2013-08-24 01:50:00,
2013-08-23 21:55:00,68.3,51.5,30.03,NE,40,1.0,1.0,55,0.00,,,0.00,Wunderground v.1.13,2013-08-24 01:55:00,
2013-08-23 22:05:00,68.3,52.5,30.03,ENE,61,0.0,0.0,57,0.00,,,0.00,Wunderground v.1.13,2013-08-24 02:05:00,
2013-08-23 22:10:00,68.1,53.7,30.03,NNE,21,0.0,0.0,60,0.00,,,0.00,Wunderground v.1.13,2013-08-24 02:10:00,
2013-08-23 22:15:00,67.6,54.1,30.04,NNE,21,0.0,0.0,62,0.00,,,0.00,Wunderground v.1.13,2013-08-24 02:15:00,
2013-08-23 22:25:00,66.4,54.3,30.04,NNE,21,0.0,1.0,65,0.00,,,0.00,Wunderground v.1.13,2013-08-24 02:25:00,
2013-08-23 22:30:00,66.0,54.3,30.04,NNE,21,0.0,0.0,66,0.00,,,0.00,Wunderground v.1.13,2013-08-24 02:30:00,
2013-08-23 22:35:00,65.6,53.9,30.04,NNE,21,0.0,0.0,66,0.00,,,0.00,Wunderground v.1.13,2013-08-24 02:35:00,
2013-08-23 22:40:00,65.2,54.0,30.04,NNE,21,0.0,0.0,67,0.00,,,0.00,Wunderground v.1.13,2013-08-24 02:40:00,
2013-08-23 22:45:00,65.0,54.2,30.05,NNE,21,0.0,0.0,68,0.00,,,0.00,Wunderground v.1.13,2013-08-24 02:45:00,
2013-08-23 22:55:00,64.3,53.9,30.05,NNE,21,0.0,0.0,69,0.00,,,0.00,Wunderground v.1.13,2013-08-24 02:55:00,
2013-08-23 23:00:00,64.2,54.2,30.05,NNE,21,0.0,0.0,70,0.00,,,0.00,Wunderground v.1.13,2013-08-24 03:00:00,
2013-08-23 23:10:00,63.7,53.7,30.05,NNE,21,0.0,0.0,70,0.00,,,0.00,Wunderground v.1.13,2013-08-24 03:10:00,
2013-08-23 23:15:00,63.7,53.7,30.06,NNE,21,0.0,0.0,70,0.00,,,0.00,Wunderground v.1.13,2013-08-24 03:15:00,
2013-08-23 23:20:00,63.5,53.9,30.06,NNE,21,0.0,0.0,71,0.00,,,0.00,Wunderground v.1.13,2013-08-24 03:20:00,
2013-08-23 23:25:00,63.4,53.8,30.06,NNE,21,0.0,0.0,71,0.00,,,0.00,Wunderground v.1.13,2013-08-24 03:25:00,
2013-08-23 23:30:00,63.4,53.8,30.06,NNE,21,0.0,0.0,71,0.00,,,0.00,Wunderground v.1.13,2013-08-24 03:30:00,
2013-08-23 23:40:00,63.2,54.0,30.06,NNE,21,0.0,0.0,72,0.00,,,0.00,Wunderground v.1.13,2013-08-24 03:40:00,
2013-08-23 23:45:00,63.2,54.4,30.06,NNE,21,0.0,0.0,73,0.00,,,0.00,Wunderground v.1.13,2013-08-24 03:45:00,
2013-08-23 23:50:00,63.1,54.3,30.06,NNE,21,0.0,0.0,73,0.00,,,0.00,Wunderground v.1.13,2013-08-24 03:50:00,
2013-08-23 23:55:00,62.9,54.1,30.06,NNE,21,0.0,0.0,73,0.00,,,0.00,Wunderground v.1.13,2013-08-24 03:55:00,